Etusivu
METAR-TAF:

METAR-TAF

Lentoasemat :

Norrköping, Ruotsi

Leveyspiiri: 58-35N, Pituuspiiri: 016-09E, korkeus merenpinnasta: 34 m

Tämänhetkinen sää

Tämä raportti tehtiin 20 minuuttia sitten, kello 13.20 UTC
Tuuli 9 kn idästä/kaakosta
Lämpötila 22°C
Kosteus 31%
Ilmanpaine 1030 hPa
Näkyvyys 10 km tai enemmän
ei pilviä alle 1500 m:ssä eikä cumulonimbus-pilviä

METAR: ESSP 241320Z 12009KT CAVOK 22/04 Q1030

Aika: 15:40 (13:40 UTC)

Sääennuste

Tämä raportti tehtiin 2 tuntia ja 10 minuuttia sitten, kello 11.30 UTC
Ennuste voimassa 24. päivästä klo 12 UTC - 24. päivään klo 21 UTC
Tuuli 9 kn idästä/kaakosta
Näkyvyys 10 km tai enemmän
ei pilviä alle 1500 m:ssä eikä cumulonimbus-pilviä

TAF: ESSP 241130Z 2412/2421 12009KT CAVOK

Säähavainnot ja -ennusteet yli 4000 lentoasemalta (METAR- ja TAF-raportit).

Käytössä olevat sääasemat on merkitty karttaan keltaisilla ja punaisilla pisteillä.

Aseta hiiri pisteen päälle nähdäksesi sääaseman nimen.

Klikkaa sitten nähdäksesi säähavainnot ja -ennusteet.

Kartan vaihtaminen: klikkaa mustalla rastilla varustettuja vihreitä pisteitä, niin voit zoomata sisään; viivalla varustettua vihreää pistettä, niin voit zoomata ulos tai vihreitä nuolia, niin pääset viereisille kartoille.


METAR-TAF: